sensor_id;sensor_type;location;lat;lon;timestamp;pressure;altitude;pressure_sealevel;temperature;humidity
7170;BME280;3626;42.656;23.312;2023-04-22T00:00:07;94247.22;;;7.54;100.00
7170;BME280;3626;42.656;23.312;2023-04-22T00:00:14;94241.28;;;7.53;100.00
7170;BME280;3626;42.656;23.312;2023-04-22T00:00:20;94239.50;;;7.54;100.00
7170;BME280;3626;42.656;23.312;2023-04-22T00:00:26;94239.50;;;7.54;100.00
7170;BME280;3626;42.656;23.312;2023-04-22T00:00:33;94243.84;;;7.53;100.00
7170;BME280;3626;42.656;23.312;2023-04-22T00:00:40;94231.81;;;7.54;100.00
7170;BME280;3626;42.656;23.312;2023-04-22T00:00:47;94239.50;;;7.54;100.00
7170;BME280;3626;42.656;23.312;2023-04-22T00:00:52;94246.41;;;7.53;100.00
7170;BME280;3626;42.656;23.312;2023-04-22T00:00:59;94241.28;;;7.53;100.00
7170;BME280;3626;42.656;23.312;2023-04-22T00:01:05;94237.91;;;7.53;100.00
7170;BME280;3626;42.656;23.312;2023-04-22T00:01:11;94238.84;;;7.51;100.00
7170;BME280;3626;42.656;23.312;2023-04-22T00:01:17;94243.03;;;7.53;100.00
7170;BME280;3626;42.656;23.312;2023-04-22T00:01:23;94241.41;;;7.51;100.00
7170;BME280;3626;42.656;23.312;2023-04-22T00:01:29;94238.06;;;7.51;100.00
7170;BME280;3626;42.656;23.312;2023-04-22T00:01:35;94245.75;;;7.51;100.00
7170;BME280;3626;42.656;23.312;2023-04-22T00:01:41;94239.81;;;7.50;100.00
7170;BME280;3626;42.656;23.312;2023-04-22T00:01:47;94242.25;;;7.52;100.00
7170;BME280;3626;42.656;23.312;2023-04-22T00:01:52;94250.75;;;7.53;100.00
7170;BME280;3626;42.656;23.312;2023-04-22T00:01:59;94238.06;;;7.51;100.00
7170;BME280;3626;42.656;23.312;2023-04-22T00:02:06;94241.41;;;7.51;100.00
7170;BME280;3626;42.656;23.312;2023-04-22T00:02:11;94239.81;;;7.50;100.00
7170;BME280;3626;42.656;23.312;2023-04-22T00:02:18;94241.41;;;7.51;100.00
7170;BME280;3626;42.656;23.312;2023-04-22T00:02:27;94235.66;;;7.49;100.00
7170;BME280;3626;42.656;23.312;2023-04-22T00:02:33;94242.38;;;7.50;100.00
7170;BME280;3626;42.656;23.312;2023-04-22T00:02:41;94238.22;;;7.49;100.00
7170;BME280;3626;42.656;23.312;2023-04-22T00:02:48;94242.38;;;7.50;100.00
7170;BME280;3626;42.656;23.312;2023-04-22T00:02:53;94243.34;;;7.49;100.00
7170;BME280;3626;42.656;23.312;2023-04-22T00:03:02;94237.41;;;7.49;100.00
7170;BME280;3626;42.656;23.312;2023-04-22T00:03:08;94236.44;;;7.50;100.00
7170;BME280;3626;42.656;23.312;2023-04-22T00:03:14;94243.34;;;7.49;100.00
7170;BME280;3626;42.656;23.312;2023-04-22T00:03:20;94240.78;;;7.49;100.00
7170;BME280;3626;42.656;23.312;2023-04-22T00:03:26;94238.22;;;7.49;100.00
7170;BME280;3626;42.656;23.312;2023-04-22T00:03:33;94239.00;;;7.50;100.00
7170;BME280;3626;42.656;23.312;2023-04-22T00:03:39;94238.22;;;7.49;100.00
7170;BME280;3626;42.656;23.312;2023-04-22T00:03:46;94233.09;;;7.49;100.00
7170;BME280;3626;42.656;23.312;2023-04-22T00:03:52;94241.59;;;7.50;100.00
7170;BME280;3626;42.656;23.312;2023-04-22T00:03:58;94234.84;;;7.49;100.00
7170;BME280;3626;42.656;23.312;2023-04-22T00:04:03;94245.91;;;7.49;100.00
7170;BME280;3626;42.656;23.312;2023-04-22T00:04:10;94238.22;;;7.49;100.00
7170;BME280;3626;42.656;23.312;2023-04-22T00:04:15;94230.69;;;7.48;100.00
7170;BME280;3626;42.656;23.312;2023-04-22T00:04:21;94236.63;;;7.48;100.00
7170;BME280;3626;42.656;23.312;2023-04-22T00:04:27;94239.31;;;7.47;100.00
7170;BME280;3626;42.656;23.312;2023-04-22T00:04:34;94239.31;;;7.47;100.00
7170;BME280;3626;42.656;23.312;2023-04-22T00:04:39;94232.59;;;7.46;100.00
7170;BME280;3626;42.656;23.312;2023-04-22T00:04:45;94233.38;;;7.46;100.00
7170;BME280;3626;42.656;23.312;2023-04-22T00:04:51;94235.94;;;7.46;100.00
7170;BME280;3626;42.656;23.312;2023-04-22T00:04:58;94234.34;;;7.45;100.00
7170;BME280;3626;42.656;23.312;2023-04-22T00:05:04;94235.31;;;7.44;100.00
7170;BME280;3626;42.656;23.312;2023-04-22T00:05:11;94237.88;;;7.44;100.00
7170;BME280;3626;42.656;23.312;2023-04-22T00:05:18;94238.03;;;7.43;100.00
7170;BME280;3626;42.656;23.312;2023-04-22T00:05:23;94238.03;;;7.43;100.00
7170;BME280;3626;42.656;23.312;2023-04-22T00:05:30;94231.28;;;7.42;100.00
7170;BME280;3626;42.656;23.312;2023-04-22T00:05:35;94230.50;;;7.41;100.00
7170;BME280;3626;42.656;23.312;2023-04-22T00:05:42;94237.22;;;7.42;100.00
7170;BME280;3626;42.656;23.312;2023-04-22T00:05:49;94230.50;;;7.41;100.00
7170;BME280;3626;42.656;23.312;2023-04-22T00:05:55;94236.44;;;7.42;100.00
7170;BME280;3626;42.656;23.312;2023-04-22T00:06:00;94236.44;;;7.42;100.00
7170;BME280;3626;42.656;23.312;2023-04-22T00:06:06;94235.63;;;7.41;100.00
7170;BME280;3626;42.656;23.312;2023-04-22T00:06:12;94237.38;;;7.41;100.00
7170;BME280;3626;42.656;23.312;2023-04-22T00:06:18;94228.72;;;7.42;100.00
7170;BME280;3626;42.656;23.312;2023-04-22T00:06:24;94233.84;;;7.42;100.00
7170;BME280;3626;42.656;23.312;2023-04-22T00:06:32;94231.28;;;7.42;100.00
7170;BME280;3626;42.656;23.312;2023-04-22T00:06:38;94239.00;;;7.42;100.00
7170;BME280;3626;42.656;23.312;2023-04-22T00:06:43;94235.47;;;7.43;100.00
7170;BME280;3626;42.656;23.312;2023-04-22T00:06:50;94230.50;;;7.41;100.00
7170;BME280;3626;42.656;23.312;2023-04-22T00:06:56;94238.19;;;7.41;100.00
7170;BME280;3626;42.656;23.312;2023-04-22T00:07:01;94242.34;;;7.42;100.00
7170;BME280;3626;42.656;23.312;2023-04-22T00:07:07;94234.66;;;7.42;100.00
7170;BME280;3626;42.656;23.312;2023-04-22T00:07:14;94235.63;;;7.41;100.00
7170;BME280;3626;42.656;23.312;2023-04-22T00:07:19;94239.00;;;7.42;100.00
7170;BME280;3626;42.656;23.312;2023-04-22T00:07:25;94233.06;;;7.41;100.00
7170;BME280;3626;42.656;23.312;2023-04-22T00:07:31;94233.06;;;7.41;100.00
7170;BME280;3626;42.656;23.312;2023-04-22T00:07:37;94238.19;;;7.41;100.00
7170;BME280;3626;42.656;23.312;2023-04-22T00:07:43;94229.69;;;7.41;100.00
7170;BME280;3626;42.656;23.312;2023-04-22T00:07:49;94239.00;;;7.42;100.00
7170;BME280;3626;42.656;23.312;2023-04-22T00:07:55;94230.50;;;7.41;100.00
7170;BME280;3626;42.656;23.312;2023-04-22T00:08:02;94234.81;;;7.41;100.00
7170;BME280;3626;42.656;23.312;2023-04-22T00:08:08;94230.50;;;7.41;100.00
7170;BME280;3626;42.656;23.312;2023-04-22T00:08:14;94233.06;;;7.41;100.00
7170;BME280;3626;42.656;23.312;2023-04-22T00:08:20;94235.63;;;7.41;100.00
7170;BME280;3626;42.656;23.312;2023-04-22T00:08:25;94237.38;;;7.41;100.00
7170;BME280;3626;42.656;23.312;2023-04-22T00:08:31;94230.50;;;7.41;100.00
7170;BME280;3626;42.656;23.312;2023-04-22T00:08:37;94234.03;;;7.40;100.00
7170;BME280;3626;42.656;23.312;2023-04-22T00:08:43;94229.69;;;7.41;100.00
7170;BME280;3626;42.656;23.312;2023-04-22T00:08:48;94233.06;;;7.41;100.00
7170;BME280;3626;42.656;23.312;2023-04-22T00:08:54;94230.50;;;7.41;100.00
7170;BME280;3626;42.656;23.312;2023-04-22T00:09:00;94235.63;;;7.41;100.00
7170;BME280;3626;42.656;23.312;2023-04-22T00:09:06;94229.69;;;7.41;100.00
7170;BME280;3626;42.656;23.312;2023-04-22T00:09:12;94234.81;;;7.41;100.00
7170;BME280;3626;42.656;23.312;2023-04-22T00:09:18;94234.03;;;7.40;100.00
7170;BME280;3626;42.656;23.312;2023-04-22T00:09:24;94231.59;;;7.39;100.00
7170;BME280;3626;42.656;23.312;2023-04-22T00:09:30;94229.84;;;7.39;100.00
7170;BME280;3626;42.656;23.312;2023-04-22T00:09:36;94227.28;;;7.39;100.00
7170;BME280;3626;42.656;23.312;2023-04-22T00:09:42;94232.44;;;7.39;100.00
7170;BME280;3626;42.656;23.312;2023-04-22T00:09:48;94232.44;;;7.39;100.00
7170;BME280;3626;42.656;23.312;2023-04-22T00:09:54;94236.59;;;7.40;100.00
7170;BME280;3626;42.656;23.312;2023-04-22T00:10:00;94239.16;;;7.40;100.00
7170;BME280;3626;42.656;23.312;2023-04-22T00:10:06;94239.16;;;7.40;100.00
7170;BME280;3626;42.656;23.312;2023-04-22T00:10:12;94228.88;;;7.40;100.00
7170;BME280;3626;42.656;23.312;2023-04-22T00:10:18;94228.09;;;7.40;100.00
7170;BME280;3626;42.656;23.312;2023-04-22T00:10:26;94236.59;;;7.40;100.00
7170;BME280;3626;42.656;23.312;2023-04-22T00:10:32;94231.47;;;7.40;100.00
7170;BME280;3626;42.656;23.312;2023-04-22T00:10:38;94234.03;;;7.40;100.00
7170;BME280;3626;42.656;23.312;2023-04-22T00:10:43;94228.09;;;7.40;100.00
7170;BME280;3626;42.656;23.312;2023-04-22T00:10:49;94232.25;;;7.41;100.00
7170;BME280;3626;42.656;23.312;2023-04-22T00:10:56;94237.56;;;7.39;100.00
7170;BME280;3626;42.656;23.312;2023-04-22T00:11:02;94234.03;;;7.40;100.00
7170;BME280;3626;42.656;23.312;2023-04-22T00:11:08;94228.88;;;7.40;100.00
7170;BME280;3626;42.656;23.312;2023-04-22T00:11:14;94230.50;;;7.41;100.00
7170;BME280;3626;42.656;23.312;2023-04-22T00:11:20;94231.47;;;7.40;100.00
7170;BME280;3626;42.656;23.312;2023-04-22T00:11:27;94229.69;;;7.41;100.00
7170;BME280;3626;42.656;23.312;2023-04-22T00:11:33;94227.91;;;7.41;100.00
7170;BME280;3626;42.656;23.312;2023-04-22T00:11:39;94228.88;;;7.40;100.00
7170;BME280;3626;42.656;23.312;2023-04-22T00:11:45;94231.47;;;7.40;100.00
7170;BME280;3626;42.656;23.312;2023-04-22T00:11:51;94231.47;;;7.40;100.00
7170;BME280;3626;42.656;23.312;2023-04-22T00:11:56;94230.66;;;7.40;100.00
7170;BME280;3626;42.656;23.312;2023-04-22T00:12:03;94233.22;;;7.40;100.00
7170;BME280;3626;42.656;23.312;2023-04-22T00:12:09;94234.03;;;7.40;100.00
7170;BME280;3626;42.656;23.312;2023-04-22T00:12:15;94234.03;;;7.40;100.00
7170;BME280;3626;42.656;23.312;2023-04-22T00:12:21;94233.22;;;7.40;100.00
7170;BME280;3626;42.656;23.312;2023-04-22T00:12:27;94235.00;;;7.39;100.00
7170;BME280;3626;42.656;23.312;2023-04-22T00:12:34;94227.44;;;7.38;100.00
7170;BME280;3626;42.656;23.312;2023-04-22T00:12:40;94230.78;;;7.38;100.00
7170;BME280;3626;42.656;23.312;2023-04-22T00:12:46;94235.13;;;7.38;100.00
7170;BME280;3626;42.656;23.312;2023-04-22T00:12:51;94227.44;;;7.38;100.00
7170;BME280;3626;42.656;23.312;2023-04-22T00:12:57;94226.63;;;7.37;100.00
7170;BME280;3626;42.656;23.312;2023-04-22T00:13:03;94227.44;;;7.38;100.00
7170;BME280;3626;42.656;23.312;2023-04-22T00:13:09;94234.31;;;7.37;100.00
7170;BME280;3626;42.656;23.312;2023-04-22T00:13:15;94224.84;;;7.38;100.00
7170;BME280;3626;42.656;23.312;2023-04-22T00:13:20;94230.78;;;7.38;100.00
7170;BME280;3626;42.656;23.312;2023-04-22T00:13:26;94232.44;;;7.39;100.00
7170;BME280;3626;42.656;23.312;2023-04-22T00:13:32;94228.22;;;7.38;100.00
7170;BME280;3626;42.656;23.312;2023-04-22T00:13:38;94241.06;;;7.38;100.00
7170;BME280;3626;42.656;23.312;2023-04-22T00:13:44;94230.78;;;7.38;100.00
7170;BME280;3626;42.656;23.312;2023-04-22T00:13:50;94231.59;;;7.39;100.00
7170;BME280;3626;42.656;23.312;2023-04-22T00:13:56;94227.44;;;7.38;100.00
7170;BME280;3626;42.656;23.312;2023-04-22T00:14:02;94229.03;;;7.39;100.00
7170;BME280;3626;42.656;23.312;2023-04-22T00:14:08;94230.00;;;7.38;100.00
7170;BME280;3626;42.656;23.312;2023-04-22T00:14:14;94226.78;;;7.36;100.00
7170;BME280;3626;42.656;23.312;2023-04-22T00:14:20;94230.28;;;7.35;100.00
7170;BME280;3626;42.656;23.312;2023-04-22T00:14:26;94235.44;;;7.35;100.00
7170;BME280;3626;42.656;23.312;2023-04-22T00:14:32;94236.56;;;7.32;100.00
7170;BME280;3626;42.656;23.312;2023-04-22T00:14:37;94230.47;;;7.33;100.00
7170;BME280;3626;42.656;23.312;2023-04-22T00:14:43;94225.31;;;7.33;100.00
7170;BME280;3626;42.656;23.312;2023-04-22T00:14:49;94232.22;;;7.33;100.00
7170;BME280;3626;42.656;23.312;2023-04-22T00:14:55;94233.03;;;7.33;100.00
7170;BME280;3626;42.656;23.312;2023-04-22T00:15:01;94233.03;;;7.33;100.00
7170;BME280;3626;42.656;23.312;2023-04-22T00:15:08;94231.44;;;7.32;100.00
7170;BME280;3626;42.656;23.312;2023-04-22T00:15:14;94228.84;;;7.32;100.00
7170;BME280;3626;42.656;23.312;2023-04-22T00:15:20;94233.03;;;7.33;100.00
7170;BME280;3626;42.656;23.312;2023-04-22T00:15:26;94227.91;;;7.33;100.00
7170;BME280;3626;42.656;23.312;2023-04-22T00:15:32;94227.91;;;7.33;100.00
7170;BME280;3626;42.656;23.312;2023-04-22T00:15:38;94231.44;;;7.32;100.00
7170;BME280;3626;42.656;23.312;2023-04-22T00:15:44;94229.66;;;7.33;100.00
7170;BME280;3626;42.656;23.312;2023-04-22T00:15:50;94231.25;;;7.34;100.00
7170;BME280;3626;42.656;23.312;2023-04-22T00:15:56;94230.47;;;7.33;100.00
7170;BME280;3626;42.656;23.312;2023-04-22T00:16:03;94233.69;;;7.35;100.00
7170;BME280;3626;42.656;23.312;2023-04-22T00:16:08;94228.69;;;7.34;100.00
7170;BME280;3626;42.656;23.312;2023-04-22T00:16:14;94229.50;;;7.34;100.00
7170;BME280;3626;42.656;23.312;2023-04-22T00:16:20;94228.69;;;7.34;100.00
7170;BME280;3626;42.656;23.312;2023-04-22T00:16:26;94233.03;;;7.33;100.00
7170;BME280;3626;42.656;23.312;2023-04-22T00:16:32;94230.47;;;7.33;100.00
7170;BME280;3626;42.656;23.312;2023-04-22T00:16:38;94228.84;;;7.32;100.00
7170;BME280;3626;42.656;23.312;2023-04-22T00:16:45;94229.81;;;7.31;100.00
7170;BME280;3626;42.656;23.312;2023-04-22T00:16:50;94227.25;;;7.31;100.00
7170;BME280;3626;42.656;23.312;2023-04-22T00:16:58;94224.69;;;7.31;100.00
7170;BME280;3626;42.656;23.312;2023-04-22T00:17:04;94230.63;;;7.32;100.00
7170;BME280;3626;42.656;23.312;2023-04-22T00:17:11;94235.75;;;7.32;100.00
7170;BME280;3626;42.656;23.312;2023-04-22T00:17:17;94229.03;;;7.31;100.00
7170;BME280;3626;42.656;23.312;2023-04-22T00:17:22;94229.03;;;7.31;100.00
7170;BME280;3626;42.656;23.312;2023-04-22T00:17:29;94231.59;;;7.31;100.00
7170;BME280;3626;42.656;23.312;2023-04-22T00:17:35;94233.34;;;7.30;100.00
7170;BME280;3626;42.656;23.312;2023-04-22T00:17:40;94228.19;;;7.30;100.00
7170;BME280;3626;42.656;23.312;2023-04-22T00:17:47;94239.44;;;7.29;100.00
7170;BME280;3626;42.656;23.312;2023-04-22T00:17:53;94225.00;;;7.28;100.00
7170;BME280;3626;42.656;23.312;2023-04-22T00:17:59;94229.34;;;7.28;100.00
7170;BME280;3626;42.656;23.312;2023-04-22T00:18:04;94229.34;;;7.28;100.00
7170;BME280;3626;42.656;23.312;2023-04-22T00:18:18;94228.38;;;7.29;100.00
7170;BME280;3626;42.656;23.312;2023-04-22T00:18:23;94229.16;;;7.29;100.00
7170;BME280;3626;42.656;23.312;2023-04-22T00:18:29;94230.94;;;7.29;100.00
7170;BME280;3626;42.656;23.312;2023-04-22T00:18:35;94232.53;;;7.30;100.00
7170;BME280;3626;42.656;23.312;2023-04-22T00:18:41;94227.41;;;7.30;100.00
7170;BME280;3626;42.656;23.312;2023-04-22T00:18:48;94230.75;;;7.30;100.00
7170;BME280;3626;42.656;23.312;2023-04-22T00:18:54;94228.19;;;7.30;100.00
7170;BME280;3626;42.656;23.312;2023-04-22T00:19:00;94234.97;;;7.31;100.00
7170;BME280;3626;42.656;23.312;2023-04-22T00:19:05;94227.25;;;7.31;100.00
7170;BME280;3626;42.656;23.312;2023-04-22T00:19:11;94228.84;;;7.32;100.00
7170;BME280;3626;42.656;23.312;2023-04-22T00:19:17;94222.75;;;7.33;100.00
7170;BME280;3626;42.656;23.312;2023-04-22T00:19:23;94232.22;;;7.33;100.00
7170;BME280;3626;42.656;23.312;2023-04-22T00:19:28;94222.75;;;7.33;100.00
7170;BME280;3626;42.656;23.312;2023-04-22T00:19:35;94229.50;;;7.34;100.00
7170;BME280;3626;42.656;23.312;2023-04-22T00:19:41;94236.41;;;7.34;100.00
7170;BME280;3626;42.656;23.312;2023-04-22T00:19:48;94228.69;;;7.34;100.00
7170;BME280;3626;42.656;23.312;2023-04-22T00:19:54;94229.50;;;7.34;100.00
7170;BME280;3626;42.656;23.312;2023-04-22T00:20:00;94226.94;;;7.34;100.00
7170;BME280;3626;42.656;23.312;2023-04-22T00:20:07;94229.34;;;7.36;100.00
7170;BME280;3626;42.656;23.312;2023-04-22T00:20:15;94223.44;;;7.35;100.00
7170;BME280;3626;42.656;23.312;2023-04-22T00:20:21;94226.78;;;7.36;100.00
7170;BME280;3626;42.656;23.312;2023-04-22T00:20:27;94228.56;;;7.35;100.00
7170;BME280;3626;42.656;23.312;2023-04-22T00:20:33;94234.50;;;7.36;100.00
7170;BME280;3626;42.656;23.312;2023-04-22T00:20:41;94226.78;;;7.36;100.00
7170;BME280;3626;42.656;23.312;2023-04-22T00:20:48;94230.16;;;7.36;100.00
7170;BME280;3626;42.656;23.312;2023-04-22T00:20:53;94232.72;;;7.36;100.00
7170;BME280;3626;42.656;23.312;2023-04-22T00:20:59;94230.97;;;7.37;100.00
7170;BME280;3626;42.656;23.312;2023-04-22T00:21:06;94230.97;;;7.37;100.00
7170;BME280;3626;42.656;23.312;2023-04-22T00:21:12;94223.25;;;7.37;100.00
7170;BME280;3626;42.656;23.312;2023-04-22T00:21:18;94226.00;;;7.35;100.00
7170;BME280;3626;42.656;23.312;2023-04-22T00:21:24;94225.31;;;7.33;100.00
7170;BME280;3626;42.656;23.312;2023-04-22T00:21:29;94231.44;;;7.32;100.00
7170;BME280;3626;42.656;23.312;2023-04-22T00:21:35;94225.50;;;7.32;100.00
7170;BME280;3626;42.656;23.312;2023-04-22T00:21:41;94230.63;;;7.32;100.00
7170;BME280;3626;42.656;23.312;2023-04-22T00:21:47;94230.75;;;7.30;100.00
7170;BME280;3626;42.656;23.312;2023-04-22T00:21:52;94228.19;;;7.30;100.00
7170;BME280;3626;42.656;23.312;2023-04-22T00:21:58;94228.19;;;7.30;100.00
7170;BME280;3626;42.656;23.312;2023-04-22T00:22:05;94225.78;;;7.29;100.00
7170;BME280;3626;42.656;23.312;2023-04-22T00:22:11;94230.75;;;7.30;100.00
7170;BME280;3626;42.656;23.312;2023-04-22T00:22:17;94227.41;;;7.30;100.00
7170;BME280;3626;42.656;23.312;2023-04-22T00:22:23;94225.78;;;7.29;100.00
7170;BME280;3626;42.656;23.312;2023-04-22T00:22:28;94233.50;;;7.29;100.00
7170;BME280;3626;42.656;23.312;2023-04-22T00:22:34;94233.50;;;7.29;100.00
7170;BME280;3626;42.656;23.312;2023-04-22T00:22:40;94228.38;;;7.29;100.00
7170;BME280;3626;42.656;23.312;2023-04-22T00:22:46;94230.13;;;7.28;100.00
7170;BME280;3626;42.656;23.312;2023-04-22T00:22:51;94227.56;;;7.28;100.00
7170;BME280;3626;42.656;23.312;2023-04-22T00:22:57;94228.38;;;7.29;100.00
7170;BME280;3626;42.656;23.312;2023-04-22T00:23:03;94229.16;;;7.29;100.00
7170;BME280;3626;42.656;23.312;2023-04-22T00:23:11;94230.94;;;7.29;100.00
7170;BME280;3626;42.656;23.312;2023-04-22T00:23:17;94229.97;;;7.30;100.00
7170;BME280;3626;42.656;23.312;2023-04-22T00:23:23;94230.13;;;7.28;100.00
7170;BME280;3626;42.656;23.312;2023-04-22T00:23:29;94225.00;;;7.28;100.00
7170;BME280;3626;42.656;23.312;2023-04-22T00:23:35;94232.53;;;7.30;100.00
7170;BME280;3626;42.656;23.312;2023-04-22T00:23:41;94223.06;;;7.30;100.00
7170;BME280;3626;42.656;23.312;2023-04-22T00:23:49;94229.97;;;7.30;100.00
7170;BME280;3626;42.656;23.312;2023-04-22T00:23:56;94231.59;;;7.31;100.00
7170;BME280;3626;42.656;23.312;2023-04-22T00:24:02;94223.06;;;7.30;100.00
7170;BME280;3626;42.656;23.312;2023-04-22T00:24:08;94232.41;;;7.31;100.00
7170;BME280;3626;42.656;23.312;2023-04-22T00:24:13;94226.47;;;7.31;100.00
7170;BME280;3626;42.656;23.312;2023-04-22T00:24:19;94226.28;;;7.32;100.00
7170;BME280;3626;42.656;23.312;2023-04-22T00:24:25;94231.44;;;7.32;100.00
7170;BME280;3626;42.656;23.312;2023-04-22T00:24:31;94228.84;;;7.32;100.00
7170;BME280;3626;42.656;23.312;2023-04-22T00:24:37;94234.78;;;7.33;100.00
7170;BME280;3626;42.656;23.312;2023-04-22T00:24:43;94221.97;;;7.33;100.00
7170;BME280;3626;42.656;23.312;2023-04-22T00:24:49;94232.22;;;7.33;100.00
7170;BME280;3626;42.656;23.312;2023-04-22T00:24:54;94224.53;;;7.33;100.00
7170;BME280;3626;42.656;23.312;2023-04-22T00:25:00;94233.03;;;7.33;100.00
7170;BME280;3626;42.656;23.312;2023-04-22T00:25:07;94233.81;;;7.34;100.00
7170;BME280;3626;42.656;23.312;2023-04-22T00:25:13;94224.53;;;7.33;100.00
7170;BME280;3626;42.656;23.312;2023-04-22T00:25:19;94226.13;;;7.34;100.00
7170;BME280;3626;42.656;23.312;2023-04-22T00:25:27;94232.06;;;7.34;100.00
7170;BME280;3626;42.656;23.312;2023-04-22T00:25:33;94226.94;;;7.34;100.00
7170;BME280;3626;42.656;23.312;2023-04-22T00:25:39;94226.94;;;7.34;100.00
7170;BME280;3626;42.656;23.312;2023-04-22T00:25:47;94232.06;;;7.34;100.00
7170;BME280;3626;42.656;23.312;2023-04-22T00:25:53;94224.34;;;7.34;100.00
7170;BME280;3626;42.656;23.312;2023-04-22T00:25:59;94228.69;;;7.34;100.00
7170;BME280;3626;42.656;23.312;2023-04-22T00:26:05;94233.69;;;7.35;100.00
7170;BME280;3626;42.656;23.312;2023-04-22T00:26:12;94229.50;;;7.34;100.00
7170;BME280;3626;42.656;23.312;2023-04-22T00:26:18;94229.50;;;7.34;100.00
7170;BME280;3626;42.656;23.312;2023-04-22T00:26:24;94228.69;;;7.34;100.00
7170;BME280;3626;42.656;23.312;2023-04-22T00:26:30;94229.50;;;7.34;100.00
7170;BME280;3626;42.656;23.312;2023-04-22T00:26:36;94228.56;;;7.35;100.00
7170;BME280;3626;42.656;23.312;2023-04-22T00:26:42;94232.88;;;7.35;100.00
7170;BME280;3626;42.656;23.312;2023-04-22T00:26:48;94224.34;;;7.34;100.00
7170;BME280;3626;42.656;23.312;2023-04-22T00:26:54;94227.72;;;7.35;100.00
7170;BME280;3626;42.656;23.312;2023-04-22T00:26:59;94226.00;;;7.35;100.00
7170;BME280;3626;42.656;23.312;2023-04-22T00:27:07;94226.00;;;7.35;100.00
7170;BME280;3626;42.656;23.312;2023-04-22T00:27:13;94229.50;;;7.34;100.00
7170;BME280;3626;42.656;23.312;2023-04-22T00:27:18;94231.94;;;7.36;100.00
7170;BME280;3626;42.656;23.312;2023-04-22T00:27:24;94234.50;;;7.36;100.00
7170;BME280;3626;42.656;23.312;2023-04-22T00:27:30;94228.41;;;7.37;100.00
7170;BME280;3626;42.656;23.312;2023-04-22T00:27:36;94231.75;;;7.37;100.00
7170;BME280;3626;42.656;23.312;2023-04-22T00:27:42;94228.41;;;7.37;100.00
7170;BME280;3626;42.656;23.312;2023-04-22T00:27:49;94229.19;;;7.37;100.00
7170;BME280;3626;42.656;23.312;2023-04-22T00:27:55;94218.91;;;7.37;100.00
7170;BME280;3626;42.656;23.312;2023-04-22T00:28:00;94231.75;;;7.37;100.00
7170;BME280;3626;42.656;23.312;2023-04-22T00:28:06;94234.31;;;7.37;100.00
7170;BME280;3626;42.656;23.312;2023-04-22T00:28:12;94229.19;;;7.37;100.00
7170;BME280;3626;42.656;23.312;2023-04-22T00:28:18;94229.19;;;7.37;100.00
7170;BME280;3626;42.656;23.312;2023-04-22T00:28:24;94229.19;;;7.37;100.00
7170;BME280;3626;42.656;23.312;2023-04-22T00:28:30;94234.31;;;7.37;100.00
7170;BME280;3626;42.656;23.312;2023-04-22T00:28:37;94228.41;;;7.37;100.00
7170;BME280;3626;42.656;23.312;2023-04-22T00:28:43;94225.81;;;7.37;100.00
7170;BME280;3626;42.656;23.312;2023-04-22T00:28:49;94226.00;;;7.35;100.00
7170;BME280;3626;42.656;23.312;2023-04-22T00:28:54;94232.88;;;7.35;100.00
7170;BME280;3626;42.656;23.312;2023-04-22T00:29:00;94229.50;;;7.34;100.00
7170;BME280;3626;42.656;23.312;2023-04-22T00:29:06;94228.69;;;7.34;100.00
7170;BME280;3626;42.656;23.312;2023-04-22T00:29:12;94229.66;;;7.33;100.00
7170;BME280;3626;42.656;23.312;2023-04-22T00:29:17;94233.03;;;7.33;100.00
7170;BME280;3626;42.656;23.312;2023-04-22T00:29:24;94238.97;;;7.34;100.00
7170;BME280;3626;42.656;23.312;2023-04-22T00:29:30;94226.13;;;7.34;100.00
7170;BME280;3626;42.656;23.312;2023-04-22T00:29:35;94229.50;;;7.34;100.00
7170;BME280;3626;42.656;23.312;2023-04-22T00:29:41;94230.28;;;7.35;100.00
7170;BME280;3626;42.656;23.312;2023-04-22T00:29:47;94231.25;;;7.34;100.00
7170;BME280;3626;42.656;23.312;2023-04-22T00:29:53;94231.25;;;7.34;100.00
7170;BME280;3626;42.656;23.312;2023-04-22T00:29:59;94238.81;;;7.35;100.00
7170;BME280;3626;42.656;23.312;2023-04-22T00:30:05;94229.50;;;7.34;100.00
7170;BME280;3626;42.656;23.312;2023-04-22T00:30:14;94229.50;;;7.34;100.00
7170;BME280;3626;42.656;23.312;2023-04-22T00:30:21;94224.34;;;7.34;100.00
7170;BME280;3626;42.656;23.312;2023-04-22T00:30:27;94231.25;;;7.34;100.00
7170;BME280;3626;42.656;23.312;2023-04-22T00:30:33;94227.91;;;7.33;100.00
7170;BME280;3626;42.656;23.312;2023-04-22T00:30:39;94235.44;;;7.35;100.00
7170;BME280;3626;42.656;23.312;2023-04-22T00:30:45;94226.13;;;7.34;100.00
7170;BME280;3626;42.656;23.312;2023-04-22T00:30:51;94233.03;;;7.33;100.00
7170;BME280;3626;42.656;23.312;2023-04-22T00:30:57;94230.47;;;7.33;100.00
7170;BME280;3626;42.656;23.312;2023-04-22T00:31:03;94231.44;;;7.32;100.00
7170;BME280;3626;42.656;23.312;2023-04-22T00:31:10;94233.19;;;7.32;100.00
7170;BME280;3626;42.656;23.312;2023-04-22T00:31:15;94229.03;;;7.31;100.00
7170;BME280;3626;42.656;23.312;2023-04-22T00:31:21;94228.19;;;7.30;100.00
7170;BME280;3626;42.656;23.312;2023-04-22T00:31:29;94231.72;;;7.29;100.00
7170;BME280;3626;42.656;23.312;2023-04-22T00:31:35;94226.75;;;7.28;100.00
7170;BME280;3626;42.656;23.312;2023-04-22T00:31:40;94233.66;;;7.27;100.00
7170;BME280;3626;42.656;23.312;2023-04-22T00:31:46;94235.56;;;7.25;100.00
7170;BME280;3626;42.656;23.312;2023-04-22T00:31:52;94233.00;;;7.25;100.00
7170;BME280;3626;42.656;23.312;2023-04-22T00:31:58;94238.13;;;7.25;100.00
7170;BME280;3626;42.656;23.312;2023-04-22T00:32:04;94233.00;;;7.25;100.00
7170;BME280;3626;42.656;23.312;2023-04-22T00:32:09;94234.94;;;7.23;100.00
7170;BME280;3626;42.656;23.312;2023-04-22T00:32:15;94229.81;;;7.23;100.00
7170;BME280;3626;42.656;23.312;2023-04-22T00:32:21;94236.69;;;7.22;100.00
7170;BME280;3626;42.656;23.312;2023-04-22T00:32:27;94231.41;;;7.24;100.00
7170;BME280;3626;42.656;23.312;2023-04-22T00:32:34;94234.13;;;7.22;100.00
7170;BME280;3626;42.656;23.312;2023-04-22T00:32:40;94230.72;;;7.22;100.00
7170;BME280;3626;42.656;23.312;2023-04-22T00:32:45;94235.88;;;7.22;100.00
7170;BME280;3626;42.656;23.312;2023-04-22T00:32:53;94229.94;;;7.21;100.00
7170;BME280;3626;42.656;23.312;2023-04-22T00:32:59;94232.50;;;7.21;100.00